Terminal Aerodrome Forecast
Issued by NWS

Home | Current Version | Previous Version | Text Only | Print | Product List | Glossary On
Versions: 1 2 3 4 5 6 7 8 9 10 11 12 13 14 15 16 17 18 19 20 21
000
FTUS42 KTBW 172329
TAFPGD
TAF
KPGD 172329Z 1800/1824 VRB03KT P6SM SCT050 SCT250
     FM180700 VRB03KT 4SM BR SCT005 SCT050
      TEMPO 1809/1813 1SM BR SCT002 BKN005
     FM181400 15005KT P6SM SCT030 SCT250
     FM181700 21007KT P6SM SCT040 SCT250
     FM182000 24008KT P6SM FEW050 SCT250=

USA.gov is the U.S. government's official web portal to all federal, state and local government web resources and services.